Time,TemperatureF,DewpointF,PressureIn,WindDirection,WindDirectionDegrees,WindSpeedMPH,WindSpeedGustMPH,Humidity,HourlyPrecipIn,Conditions,Clouds,dailyrainin,SoftwareType,DateUTC
2013-07-22 00:01:00,61.0,60.0,29.98,ENE,58,0.0,0.0,96,0.00,,,0.01,,2013-07-22 04:01:00,
2013-07-22 00:12:00,61.0,60.0,29.99,ENE,58,1.0,1.0,96,0.00,,,0.01,,2013-07-22 04:12:00,
2013-07-22 00:22:00,60.0,59.0,29.99,SSE,153,1.0,1.0,96,0.00,,,0.00,,2013-07-22 04:22:00,
2013-07-22 00:33:00,60.0,59.0,29.99,SSE,153,0.0,0.0,97,0.00,,,0.00,,2013-07-22 04:33:00,
2013-07-22 00:43:00,60.0,59.0,29.99,SSE,153,0.0,0.0,97,0.00,,,0.00,,2013-07-22 04:43:00,
2013-07-22 01:02:00,60.0,59.0,29.99,SSE,152,0.0,0.0,97,0.00,,,0.00,,2013-07-22 05:02:00,
2013-07-22 01:11:00,60.0,59.0,29.99,SSE,152,0.0,0.0,97,0.00,,,0.00,,2013-07-22 05:11:00,
2013-07-22 01:22:00,60.0,59.0,29.99,SSE,152,0.0,0.0,97,0.00,,,0.00,,2013-07-22 05:22:00,
2013-07-22 01:32:00,61.0,60.0,29.99,SSE,152,0.0,0.0,97,0.00,,,0.00,,2013-07-22 05:32:00,
2013-07-22 01:43:00,61.0,60.0,29.98,SSE,152,0.0,0.0,97,0.00,,,0.00,,2013-07-22 05:43:00,
2013-07-22 01:52:00,61.0,60.0,29.98,SSE,152,0.0,0.0,97,0.00,,,0.00,,2013-07-22 05:52:00,
2013-07-22 02:01:00,61.0,60.0,29.98,SSE,152,0.0,0.0,97,0.00,,,0.00,,2013-07-22 06:01:00,
2013-07-22 02:11:00,60.0,59.0,29.98,SSE,152,0.0,0.0,97,0.00,,,0.00,,2013-07-22 06:11:00,
2013-07-22 02:22:00,60.0,59.0,29.98,SSE,152,0.0,0.0,97,0.00,,,0.00,,2013-07-22 06:22:00,
2013-07-22 02:33:00,60.0,59.0,29.98,SSE,152,0.0,0.0,97,0.00,,,0.00,,2013-07-22 06:33:00,
2013-07-22 02:43:00,60.0,59.0,29.97,SSE,152,0.0,0.0,97,0.00,,,0.00,,2013-07-22 06:43:00,
2013-07-22 02:52:00,60.0,59.0,29.97,SSE,152,0.0,0.0,97,0.00,,,0.00,,2013-07-22 06:52:00,
2013-07-22 03:01:00,60.0,59.0,29.96,SSE,152,0.0,0.0,98,0.00,,,0.00,,2013-07-22 07:01:00,
2013-07-22 03:12:00,60.0,59.0,29.96,SSE,152,0.0,0.0,97,0.00,,,0.00,,2013-07-22 07:12:00,
2013-07-22 03:22:00,60.0,59.0,29.96,SSE,152,0.0,0.0,98,0.00,,,0.00,,2013-07-22 07:22:00,
2013-07-22 03:33:00,60.0,59.0,29.96,SSE,152,0.0,1.0,97,0.00,,,0.00,,2013-07-22 07:33:00,
2013-07-22 03:43:00,60.0,59.0,29.96,SSE,152,0.0,0.0,97,0.00,,,0.00,,2013-07-22 07:43:00,
2013-07-22 03:53:00,59.0,58.0,29.96,SSE,153,0.0,0.0,97,0.00,,,0.00,,2013-07-22 07:53:00,
2013-07-22 04:02:00,59.0,58.0,29.96,SSE,152,0.0,0.0,98,0.00,,,0.00,,2013-07-22 08:02:00,
2013-07-22 04:11:00,59.0,58.0,29.96,SSE,153,0.0,0.0,97,0.00,,,0.00,,2013-07-22 08:11:00,
2013-07-22 04:22:00,59.0,58.0,29.95,SSE,153,0.0,0.0,98,0.00,,,0.00,,2013-07-22 08:22:00,
2013-07-22 04:32:00,59.0,58.0,29.96,SSE,152,0.0,0.0,98,0.00,,,0.00,,2013-07-22 08:32:00,
2013-07-22 04:43:00,59.0,58.0,29.95,SSE,152,0.0,0.0,98,0.00,,,0.00,,2013-07-22 08:43:00,
2013-07-22 04:52:00,59.0,58.0,29.95,SSE,152,0.0,0.0,98,0.00,,,0.00,,2013-07-22 08:52:00,
2013-07-22 05:02:00,59.0,58.0,29.96,SSE,152,0.0,0.0,98,0.00,,,0.00,,2013-07-22 09:02:00,
2013-07-22 05:11:00,59.0,58.0,29.96,SSE,152,0.0,0.0,98,0.00,,,0.00,,2013-07-22 09:11:00,
2013-07-22 05:22:00,58.0,57.0,29.96,SSE,152,0.0,0.0,98,0.00,,,0.00,,2013-07-22 09:22:00,
2013-07-22 05:33:00,58.0,57.0,29.96,SSE,152,0.0,0.0,98,0.00,,,0.00,,2013-07-22 09:33:00,
2013-07-22 05:42:00,58.0,57.0,29.96,SSE,152,0.0,0.0,98,0.00,,,0.00,,2013-07-22 09:42:00,
2013-07-22 05:52:00,58.0,57.0,29.96,SSE,152,0.0,0.0,98,0.00,,,0.00,,2013-07-22 09:52:00,
2013-07-22 06:02:00,58.0,57.0,29.96,SSE,152,0.0,0.0,98,0.00,,,0.00,,2013-07-22 10:02:00,
2013-07-22 06:11:00,58.0,57.0,29.96,SSE,167,0.0,0.0,98,0.00,,,0.00,,2013-07-22 10:11:00,
2013-07-22 06:22:00,58.0,57.0,29.96,SSE,167,0.0,0.0,98,0.00,,,0.00,,2013-07-22 10:22:00,
2013-07-22 06:32:00,58.0,57.0,29.96,SSE,167,0.0,0.0,98,0.00,,,0.00,,2013-07-22 10:32:00,
2013-07-22 06:43:00,58.0,57.0,29.96,SSE,167,0.0,0.0,98,0.00,,,0.00,,2013-07-22 10:43:00,
2013-07-22 06:53:00,58.0,57.0,29.96,SSE,167,0.0,0.0,98,0.00,,,0.00,,2013-07-22 10:53:00,
2013-07-22 07:02:00,59.0,58.0,29.97,SSE,167,0.0,0.0,98,0.00,,,0.00,,2013-07-22 11:02:00,
2013-07-22 07:11:00,59.0,58.0,29.96,SSE,167,0.0,0.0,98,0.00,,,0.00,,2013-07-22 11:11:00,
2013-07-22 07:23:00,60.0,59.0,29.96,SSE,167,0.0,0.0,98,0.00,,,0.00,,2013-07-22 11:23:00,
2013-07-22 08:02:00,62.0,61.0,29.96,SSE,167,0.0,0.0,98,0.00,,,0.00,,2013-07-22 12:02:00,
2013-07-22 08:33:00,64.0,63.0,29.96,SSE,154,0.0,2.0,97,0.00,,,0.00,,2013-07-22 12:33:00,
2013-07-22 08:43:00,65.0,64.0,29.96,SE,127,0.0,2.0,95,0.00,,,0.00,,2013-07-22 12:43:00,
2013-07-22 08:53:00,66.0,63.0,29.96,ESE,122,1.0,3.0,91,0.00,,,0.00,,2013-07-22 12:53:00,
2013-07-22 09:11:00,67.0,64.0,29.96,ESE,105,1.0,3.0,90,0.00,,,0.00,,2013-07-22 13:11:00,
2013-07-22 09:43:00,69.0,65.0,29.95,SE,128,3.0,4.0,86,0.00,,,0.00,,2013-07-22 13:43:00,
2013-07-22 10:22:00,71.0,65.0,29.94,SE,131,1.0,4.0,81,0.00,,,0.00,,2013-07-22 14:22:00,
2013-07-22 10:32:00,72.0,66.0,29.94,SE,130,3.0,5.0,81,0.00,,,0.00,,2013-07-22 14:32:00,
2013-07-22 10:43:00,73.0,66.0,29.94,SE,136,3.0,7.0,78,0.00,,,0.00,,2013-07-22 14:43:00,
2013-07-22 10:53:00,74.0,65.0,29.93,ESE,102,2.0,7.0,74,0.00,,,0.00,,2013-07-22 14:53:00,
2013-07-22 11:11:00,75.0,66.0,29.93,ESE,108,4.0,8.0,73,0.00,,,0.00,,2013-07-22 15:11:00,
2013-07-22 11:22:00,75.0,65.0,29.93,ENE,75,1.0,3.0,70,0.00,,,0.00,,2013-07-22 15:22:00,
2013-07-22 11:33:00,76.0,66.0,29.93,SE,134,1.0,5.0,71,0.00,,,0.00,,2013-07-22 15:33:00,
2013-07-22 11:43:00,76.0,66.0,29.93,ESE,103,1.0,6.0,72,0.00,,,0.00,,2013-07-22 15:43:00,
2013-07-22 11:52:00,76.0,65.0,29.93,ESE,104,2.0,8.0,70,0.00,,,0.00,,2013-07-22 15:52:00,
2013-07-22 12:01:00,77.0,66.0,29.93,SW,229,3.0,5.0,69,0.00,,,0.00,,2013-07-22 16:01:00,
2013-07-22 12:11:00,78.0,68.0,29.93,ESE,106,0.0,3.0,71,0.00,,,0.00,,2013-07-22 16:11:00,
2013-07-22 12:32:00,77.0,66.0,29.92,ENE,60,3.0,5.0,70,0.00,,,0.00,,2013-07-22 16:32:00,
2013-07-22 12:43:00,78.0,67.0,29.92,SE,131,1.0,3.0,69,0.00,,,0.00,,2013-07-22 16:43:00,
2013-07-22 12:52:00,77.0,66.0,29.92,SE,127,3.0,4.0,70,0.00,,,0.00,,2013-07-22 16:52:00,
2013-07-22 13:01:00,77.0,66.0,29.92,ESE,121,2.0,4.0,68,0.00,,,0.00,,2013-07-22 17:01:00,
2013-07-22 13:11:00,77.0,68.0,29.91,ENE,77,2.0,3.0,74,0.00,,,0.00,,2013-07-22 17:11:00,
2013-07-22 13:23:00,76.0,66.0,29.91,NE,53,3.0,5.0,72,0.00,,,0.00,,2013-07-22 17:23:00,
2013-07-22 13:32:00,77.0,67.0,29.91,NE,52,1.0,4.0,72,0.00,,,0.00,,2013-07-22 17:32:00,
2013-07-22 13:43:00,76.0,67.0,29.91,ENE,72,2.0,5.0,75,0.00,,,0.00,,2013-07-22 17:43:00,
2013-07-22 13:52:00,77.0,67.0,29.91,ENE,78,0.0,3.0,72,0.00,,,0.00,,2013-07-22 17:52:00,
2013-07-22 14:05:00,77.0,68.0,29.90,ENE,70,1.0,4.0,74,0.00,,,0.00,,2013-07-22 18:05:00,
2013-07-22 14:16:00,78.0,69.0,29.90,ENE,63,2.0,5.0,74,0.00,,,0.00,,2013-07-22 18:16:00,
2013-07-22 14:52:00,79.0,69.0,29.88,ENE,70,3.0,5.0,72,0.00,,,0.00,,2013-07-22 18:52:00,
2013-07-22 15:17:00,79.0,70.0,29.88,NNE,20,2.0,6.0,73,0.00,,,0.00,,2013-07-22 19:17:00,
2013-07-22 15:25:00,78.0,68.0,29.87,ENE,75,1.0,4.0,72,0.00,,,0.00,,2013-07-22 19:25:00,
2013-07-22 15:37:00,78.0,68.0,29.86,ENE,72,3.0,6.0,72,0.00,,,0.00,,2013-07-22 19:37:00,
2013-07-22 15:45:00,78.0,69.0,29.85,NNE,25,3.0,6.0,73,0.00,,,0.00,,2013-07-22 19:45:00,
2013-07-22 15:55:00,78.0,69.0,29.85,NNE,25,3.0,6.0,73,0.00,,,0.00,,2013-07-22 19:55:00,
2013-07-22 16:05:00,78.0,69.0,29.85,NNE,25,3.0,6.0,73,0.00,,,0.00,,2013-07-22 20:05:00,
2013-07-22 16:16:00,78.0,70.0,29.84,North,349,3.0,7.0,76,0.00,,,0.00,,2013-07-22 20:16:00,
2013-07-22 16:32:00,78.0,70.0,29.83,North,359,2.0,5.0,77,0.00,,,0.00,,2013-07-22 20:32:00,
2013-07-22 16:43:00,78.0,71.0,29.83,ENE,70,1.0,5.0,78,0.00,,,0.00,,2013-07-22 20:43:00,
2013-07-22 16:52:00,78.0,70.0,29.83,North,7,3.0,6.0,76,0.00,,,0.00,,2013-07-22 20:52:00,
2013-07-22 17:22:00,76.0,69.0,29.83,NE,55,4.0,6.0,79,0.00,,,0.00,,2013-07-22 21:22:00,
2013-07-22 17:32:00,76.0,69.0,29.83,ENE,70,2.0,7.0,79,0.00,,,0.00,,2013-07-22 21:32:00,
2013-07-22 17:43:00,76.0,69.0,29.83,NE,42,2.0,7.0,79,0.00,,,0.00,,2013-07-22 21:43:00,
2013-07-22 17:52:00,76.0,69.0,29.83,NE,37,1.0,4.0,79,0.00,,,0.00,,2013-07-22 21:52:00,
2013-07-22 18:01:00,76.0,68.0,29.82,NW,326,2.0,5.0,77,0.00,,,0.00,,2013-07-22 22:01:00,
2013-07-22 18:22:00,75.0,68.0,29.82,NNE,22,0.0,6.0,80,0.00,,,0.00,,2013-07-22 22:22:00,
2013-07-22 18:32:00,75.0,68.0,29.81,NNW,339,2.0,4.0,80,0.00,,,0.00,,2013-07-22 22:32:00,
2013-07-22 18:43:00,75.0,68.0,29.81,ENE,72,3.0,5.0,78,0.00,,,0.00,,2013-07-22 22:43:00,
2013-07-22 18:52:00,74.0,67.0,29.81,ENE,60,2.0,6.0,79,0.00,,,0.00,,2013-07-22 22:52:00,
2013-07-22 19:02:00,74.0,67.0,29.81,NNE,33,1.0,5.0,80,0.00,,,0.00,,2013-07-22 23:02:00,
2013-07-22 19:11:00,73.0,66.0,29.81,NE,52,1.0,4.0,80,0.00,,,0.00,,2013-07-22 23:11:00,
2013-07-22 19:22:00,73.0,66.0,29.80,NE,50,1.0,5.0,79,0.00,,,0.00,,2013-07-22 23:22:00,
2013-07-22 19:32:00,73.0,67.0,29.80,ENE,65,1.0,4.0,81,0.00,,,0.00,,2013-07-22 23:32:00,
2013-07-22 19:43:00,73.0,67.0,29.80,NNE,32,0.0,3.0,81,0.00,,,0.00,,2013-07-22 23:43:00,
2013-07-22 19:52:00,72.0,66.0,29.80,NE,49,1.0,4.0,81,0.00,,,0.00,,2013-07-22 23:52:00,
2013-07-22 20:01:00,72.0,66.0,29.80,ENE,59,1.0,3.0,81,0.00,,,0.00,,2013-07-23 00:01:00,
2013-07-22 20:12:00,72.0,66.0,29.80,ENE,63,0.0,3.0,81,0.00,,,0.00,,2013-07-23 00:12:00,
2013-07-22 20:22:00,72.0,66.0,29.80,ENE,62,0.0,1.0,81,0.00,,,0.00,,2013-07-23 00:22:00,
2013-07-22 20:32:00,72.0,66.0,29.80,ENE,62,0.0,1.0,81,0.00,,,0.00,,2013-07-23 00:32:00,
2013-07-22 20:43:00,72.0,67.0,29.80,ENE,62,0.0,1.0,84,0.00,,,0.00,,2013-07-23 00:43:00,
2013-07-22 20:52:00,71.0,67.0,29.80,ENE,62,0.0,1.0,86,0.00,,,0.00,,2013-07-23 00:52:00,
2013-07-22 21:22:00,70.0,67.0,29.79,ENE,62,0.0,1.0,89,0.00,,,0.00,,2013-07-23 01:22:00,
2013-07-22 21:32:00,70.0,67.0,29.79,NNW,328,0.0,1.0,91,0.00,,,0.00,,2013-07-23 01:32:00,
2013-07-22 21:43:00,69.0,66.0,29.80,NNW,328,0.0,1.0,90,0.00,,,0.00,,2013-07-23 01:43:00,
2013-07-22 21:53:00,69.0,66.0,29.80,NNW,328,0.0,0.0,91,0.00,,,0.00,,2013-07-23 01:53:00,
2013-07-22 22:02:00,69.0,66.0,29.80,SW,218,0.0,1.0,90,0.00,,,0.00,,2013-07-23 02:02:00,
2013-07-22 22:22:00,69.0,67.0,29.80,WSW,237,0.0,1.0,92,0.01,,,0.01,,2013-07-23 02:22:00,
2013-07-22 22:33:00,69.0,67.0,29.80,SW,236,0.0,1.0,93,0.01,,,0.01,,2013-07-23 02:33:00,
2013-07-22 22:43:00,69.0,67.0,29.80,SW,236,0.0,0.0,93,0.02,,,0.02,,2013-07-23 02:43:00,
2013-07-22 22:53:00,69.0,67.0,29.80,WSW,238,0.0,1.0,94,0.03,,,0.03,,2013-07-23 02:53:00,
2013-07-22 23:11:00,68.0,67.0,29.79,WSW,238,0.0,1.0,95,0.04,,,0.04,,2013-07-23 03:11:00,
2013-07-22 23:22:00,68.0,67.0,29.79,WSW,238,0.0,0.0,95,0.04,,,0.05,,2013-07-23 03:22:00,
2013-07-22 23:33:00,68.0,67.0,29.78,WSW,238,0.0,0.0,96,0.04,,,0.05,,2013-07-23 03:33:00,
2013-07-22 23:43:00,68.0,67.0,29.78,WSW,238,0.0,0.0,96,0.03,,,0.05,,2013-07-23 03:43:00,
2013-07-22 23:52:00,68.0,67.0,29.78,WSW,238,0.0,0.0,96,0.02,,,0.05,,2013-07-23 03:52:00,